Latest Coastal Weather Observations for Truscott

IDD60701

Issued at 8:11 pm CST Saturday 22 February 2020 (issued every 10 minutes, with the page automatically refreshed every 10 minutes)

About coastal observations | Map of coastal stations | Coastal observations for NT | Marine services | Other Formats
Station Details ID: 001020 Name: TRUSCOTT Lat: -14.09 Lon: 126.39 Height: 51.0 m
Data from the previous 72 hours. | See also: Recent months at Truscott
Date/Time
CST
Wind Sea
Height
m
Swell Vis
km
Cloud Weather Temp
°C
Press
hPa
Rain since
9am
mm
Dir  Spd
kts
Gust
kts
Height
m
Period
s
Dir
22/08:00pm W 11 16 - - - - 10 Clear - 29.6 1007.0 0.0
22/07:30pm W 11 17 - - - - 10 - - 29.8 1006.5 0.0
22/07:00pm W 11 17 - - - - 10 - - 30.3 1006.3 0.0
22/06:30pm W 13 18 - - - - 10 - - 30.8 1006.1 0.0
22/06:00pm W 12 18 - - - - 10 - - 30.8 1005.6 0.0
22/05:30pm W 13 19 - - - - 10 - - 31.2 1006.1 0.0
22/05:00pm W 14 19 - - - - 10 - - 31.4 1006.3 0.0
22/04:30pm W 12 17 - - - - 10 - - 31.8 1006.3 0.0
22/04:00pm W 14 21 - - - - 10 - - 31.5 1006.7 0.0
22/03:30pm W 12 17 - - - - 10 - - 32.3 1006.8 0.0
22/03:00pm W 13 18 - - - - 10 - - 32.1 1007.1 0.0
22/02:30pm WNW 11 16 - - - - 10 - - 32.4 1007.5 0.0
22/02:00pm W 10 16 - - - - 10 - - 32.6 1007.9 0.0
22/01:30pm W 11 15 - - - - 10 - - 32.3 1008.1 0.0
22/01:00pm WNW 11 17 - - - - 10 - - 32.0 1008.7 0.0
22/12:30pm W 11 16 - - - - 10 - - 31.9 1009.0 0.0
22/12:00pm W 11 17 - - - - 10 Partly cloudy - 31.5 1009.2 0.0
22/11:30am W 12 18 - - - - 10 Partly cloudy - 31.1 1009.5 0.0
22/11:00am W 11 15 - - - - 10 Partly cloudy - 31.2 1009.7 0.0
22/10:30am WSW 11 15 - - - - 10 Mostly clear - 30.7 1009.4 0.0
22/10:00am WSW 10 15 - - - - 10 - - 30.5 1009.4 0.0
22/09:30am SW 11 16 - - - - 10 - - 30.2 1009.4 0.0
22/09:00am WSW 10 16 - - - - 10 - - 29.5 1009.4 0.0
22/08:30am WSW 10 14 - - - - 10 - - 29.1 1009.1 0.0
22/08:00am SW 8 13 - - - - 10 - - 28.6 1008.7 0.0
22/07:30am WSW 8 11 - - - - 10 - - 28.1 1008.4 0.0
22/07:00am WSW 9 12 - - - - 10 - - 28.3 1008.3 0.0
22/06:30am WSW 7 10 - - - - 10 - - 28.1 1008.3 0.0
22/06:00am WSW 7 9 - - - - 10 - - 28.0 1008.2 0.0
22/05:30am WSW 7 10 - - - - 10 - - 28.1 1008.1 0.0
22/05:00am WSW 8 12 - - - - 10 - - 28.2 1008.2 0.0
22/04:30am WSW 7 11 - - - - 10 - - 28.4 1008.2 0.0
22/04:00am WSW 9 12 - - - - 10 - - 28.5 1008.5 0.0
22/03:30am WSW 8 11 - - - - 10 - - 28.5 1008.7 0.0
22/03:00am WSW 9 13 - - - - 10 - - 28.8 1008.9 0.0
22/02:30am WSW 9 13 - - - - 10 - - 28.7 1009.3 0.0
22/02:00am WSW 10 16 - - - - 10 Partly cloudy - 28.8 1009.5 0.0
22/01:30am WSW 10 14 - - - - 10 Cloudy - 28.8 1009.5 0.0
22/01:00am WSW 11 19 - - - - 10 Partly cloudy - 29.0 1010.0 0.0
22/12:30am W 13 20 - - - - 10 Partly cloudy - 29.1 1010.4 0.0
22/12:00am W 11 16 - - - - 10 Partly cloudy - 29.0 1010.8 0.0
 
Date/Time
CST
Wind Sea
Height
m
Swell Vis
km
Cloud Weather Temp
°C
Press
hPa
Rain since
9am
mm
Dir  Spd
kts
Gust
kts
Height
m
Period
s
Dir
21/11:30pm W 10 16 - - - - 10 Partly cloudy - 29.0 1010.6 0.0
21/11:00pm W 10 14 - - - - 10 Partly cloudy - 28.9 1010.5 0.0
21/10:30pm W 9 15 - - - - 10 Partly cloudy - 28.9 1010.2 0.0
21/10:00pm W 8 10 - - - - 10 - - 28.9 1010.3 0.0
21/09:30pm W 8 13 - - - - 10 Partly cloudy - 29.0 1010.1 0.0
21/09:00pm W 9 13 - - - - 10 Partly cloudy - 29.1 1009.9 0.0
21/08:30pm W 9 12 - - - - 10 - - 29.2 1009.1 0.0
21/08:00pm W 8 11 - - - - 10 - - 29.5 1008.5 0.0
21/07:30pm W 7 11 - - - - 10 - - 29.7 1007.8 0.0
21/07:00pm W 7 9 - - - - 10 - - 30.1 1007.5 0.0
21/06:30pm W 8 13 - - - - 10 - - 30.8 1007.2 0.0
21/06:00pm W 7 11 - - - - 10 - - 31.3 1006.9 0.0
21/05:30pm W 8 11 - - - - 10 - - 31.0 1006.9 0.0
21/05:00pm W 7 11 - - - - 10 - - 32.6 1006.9 0.0
21/04:30pm WSW 8 11 - - - - 10 - - 32.3 1006.9 0.0
21/04:00pm W 8 11 - - - - 10 - - 32.1 1007.5 0.0
21/03:30pm W 7 11 - - - - 10 - - 31.5 1007.8 0.0
21/03:00pm WNW 7 11 - - - - 10 - - 31.0 1008.0 0.0
21/02:30pm W 6 9 - - - - 10 - - 30.5 1008.3 0.0
21/02:00pm W 7 11 - - - - 10 - - 30.4 1008.6 0.0
21/01:30pm NW 6 9 - - - - 10 - - 29.8 1008.8 0.0
21/01:00pm W 6 8 - - - - 10 Partly cloudy - 29.4 1009.5 0.0
21/12:30pm WNW 6 7 - - - - 10 - - 29.1 1009.8 0.0
21/12:00pm WNW 6 8 - - - - 10 - - 29.8 1009.9 0.0
21/11:30am WNW 6 8 - - - - 10 - - 29.7 1009.8 0.0
21/11:00am SW 5 8 - - - - 10 - - 29.3 1010.2 0.0
21/10:30am SW 4 5 - - - - 10 - - 28.4 1010.2 9.0
21/10:00am WNW 3 5 - - - - 10 - - 27.6 1010.0 9.0
21/09:30am CALM 0 4 - - - - 10 - - 27.3 1010.4 9.0
21/09:00am NNW 1 3 - - - - 10 - - 26.7 1010.1 9.0
21/08:30am SW 3 5 - - - - 10 - - 26.1 1009.6 9.0
21/08:00am SW 7 9 - - - - 10 - - 25.6 1008.9 9.0
21/07:30am SW 7 9 - - - - 10 - - 25.1 1009.1 9.0
21/07:00am SW 8 11 - - - - 10 Partly cloudy - 25.0 1009.7 9.0
21/06:30am SSW 4 5 - - - - 10 - - 25.4 1010.0 9.0
21/06:00am ESE 5 9 - - - - 10 - - 25.4 1010.3 9.0
21/05:30am E 8 14 - - - - 10 - - 25.6 1010.4 9.0
21/05:06am E 9 14 - - - - 10 Partly cloudy - 25.5 1010.4 9.0
21/05:00am ESE 9 13 - - - - 10 Partly cloudy - 25.3 1010.4 9.0
21/04:55am ESE 10 16 - - - - 10 Partly cloudy - 25.3 1010.5 9.0
21/04:30am ENE 6 8 - - - - 10 - - 25.6 1010.0 9.0
21/04:00am ESE 6 7 - - - - 10 - - 25.3 1009.5 9.0
21/03:30am NNE 5 7 - - - - 10 - - 25.2 1009.0 9.0
21/03:00am NE 4 6 - - - - 10 - - 24.8 1009.4 9.0
21/02:30am ENE 6 9 - - - - 10 Partly cloudy - 24.9 1009.3 9.0
21/02:00am S 4 6 - - - - 10 - - 24.9 1009.8 9.0
21/01:30am SSW 9 12 - - - - 10 Mostly clear - 24.6 1010.1 9.0
21/01:00am SSW 11 16 - - - - 10 Partly cloudy - 24.6 1010.6 9.0
21/12:30am SW 9 12 - - - - 10 - - 23.8 1010.5 9.0
21/12:00am SW 7 10 - - - - 10 Partly cloudy - 24.1 1010.2 9.0
 
Date/Time
CST
Wind Sea
Height
m
Swell Vis
km
Cloud Weather Temp
°C
Press
hPa
Rain since
9am
mm
Dir  Spd
kts
Gust
kts
Height
m
Period
s
Dir
20/11:30pm WSW 6 8 - - - - 10 - - 24.5 1010.2 8.4
20/11:00pm SSW 7 11 - - - - 10 Partly cloudy - 24.7 1010.5 8.4
20/10:34pm S 15 21 - - - - 10 Partly cloudy - 23.7 1010.3 8.4
20/10:30pm S 15 21 - - - - 10 Cloudy - 23.5 1010.1 8.4
20/10:00pm SE 11 19 - - - - 5 Partly cloudy - 22.8 1010.7 1.6
20/09:59pm SE 11 20 - - - - 5 Partly cloudy - 22.9 1010.6 1.2
20/09:47pm ESE 15 28 - - - - 10 Partly cloudy - 25.1 1010.4 0.0
20/09:30pm S 7 19 - - - - 10 Partly cloudy - 28.0 1009.9 0.0
20/09:00pm W 7 12 - - - - 10 - - 29.6 1008.4 0.0
20/08:30pm W 9 15 - - - - 10 - - 29.9 1008.2 0.0
20/08:00pm WNW 11 16 - - - - 10 - - 30.0 1006.8 0.0
20/07:30pm W 11 16 - - - - 10 - - 30.2 1006.0 0.0
20/07:00pm W 10 15 - - - - 10 - - 30.5 1006.0 0.0
20/06:30pm W 11 17 - - - - 10 - - 30.8 1005.4 0.0
20/06:00pm W 11 17 - - - - 10 - - 31.4 1005.1 0.0
20/05:30pm W 11 17 - - - - 10 - - 31.9 1004.8 0.0
20/05:00pm WNW 11 16 - - - - 10 - - 32.3 1004.8 0.0
20/04:30pm W 11 16 - - - - 10 - - 32.3 1005.1 0.0
20/04:00pm WNW 11 17 - - - - 10 - - 32.3 1005.9 0.0
20/03:30pm WNW 12 18 - - - - 10 - - 32.1 1006.2 0.0
20/03:00pm W 11 16 - - - - 10 - - 32.3 1006.4 0.0
20/02:30pm W 12 17 - - - - 10 Partly cloudy - 32.0 1006.7 0.0
20/02:00pm W 11 17 - - - - 10 - - 31.8 1007.0 0.0
20/01:30pm W 13 18 - - - - 10 Mostly clear - 31.6 1007.1 0.0
20/01:00pm W 13 19 - - - - 10 Partly cloudy - 31.7 1007.6 0.0
20/12:30pm WSW 11 18 - - - - 10 Partly cloudy - 32.0 1007.9 0.0
20/12:00pm WSW 12 19 - - - - 10 Partly cloudy - 31.6 1008.4 0.0
20/11:30am W 13 19 - - - - 10 Partly cloudy - 31.1 1008.4 0.0
20/11:00am W 12 18 - - - - 10 Partly cloudy - 30.6 1008.7 0.0
20/10:30am WSW 11 18 - - - - 10 Partly cloudy - 30.9 1008.5 0.0
20/10:00am W 11 17 - - - - 10 Partly cloudy - 30.4 1008.5 0.0
20/09:30am WSW 10 16 - - - - 10 Partly cloudy - 29.8 1008.4 0.0
20/09:00am W 9 15 - - - - 10 Partly cloudy - 29.8 1008.3 0.0
20/08:30am W 9 13 - - - - 10 - - 29.1 1008.1 0.0
20/08:00am WSW 7 11 - - - - 10 Partly cloudy - 28.7 1007.8 0.0
20/07:30am WSW 6 10 - - - - 10 Partly cloudy - 28.5 1007.3 0.0
20/07:00am WSW 6 10 - - - - 10 Partly cloudy - 28.5 1007.2 0.0
20/06:30am W 7 11 - - - - 10 Partly cloudy - 28.6 1006.9 0.0
20/06:00am W 9 13 - - - - 10 Partly cloudy - 28.8 1006.6 0.0
20/05:30am W 11 15 - - - - 10 Partly cloudy - 28.9 1006.5 0.0
20/05:00am W 8 12 - - - - 10 Partly cloudy - 28.8 1006.3 0.0
20/04:30am W 8 12 - - - - 10 - - 28.7 1005.8 0.0
20/04:00am W 9 14 - - - - 10 Partly cloudy - 28.8 1005.9 0.0
20/03:30am W 8 11 - - - - 10 Partly cloudy - 28.8 1006.1 0.0
20/03:00am W 8 12 - - - - 10 - - 28.9 1006.3 0.0
20/02:30am W 8 11 - - - - 10 - - 29.0 1006.3 0.0
20/02:00am W 6 9 - - - - 10 - - 29.1 1006.6 0.0
20/01:30am WSW 7 11 - - - - 10 - - 29.3 1006.9 0.0
20/01:00am W 8 11 - - - - 10 - - 29.4 1007.1 0.0
20/12:30am W 9 13 - - - - 10 - - 29.6 1007.3 0.0
20/12:00am W 9 12 - - - - 10 - - 29.5 1007.5 0.0
 
Date/Time
CST
Wind Sea
Height
m
Swell Vis
km
Cloud Weather Temp
°C
Press
hPa
Rain since
9am
mm
Dir  Spd
kts
Gust
kts
Height
m
Period
s
Dir
19/11:30pm W 7 10 - - - - 10 - - 29.5 1007.6 0.0
19/11:00pm W 7 9 - - - - 10 - - 29.6 1007.4 0.0
19/10:30pm W 6 10 - - - - 10 - - 29.3 1007.2 0.0
19/10:00pm WSW 5 8 - - - - 10 - - 29.1 1007.2 0.0

Other formats

Comma delimited format used in spreadsheet applications
http://www.bom.gov.au/fwo/IDD60701/IDD60701.95101.axf

JavaScript Object Notation format (JSON) in row-major order
http://www.bom.gov.au/fwo/IDD60701/IDD60701.95101.json

Data quality

Most of these data are generated automatically and are frequently updated. Quality checks on data are not normally performed. It is possible for incorrect values to appear. Refer to information at About Latest Weather Observations and please check the disclaimer before using these data.